Time;durP1;ratioP1;P1;durP2;ratioP2;P2;SDS_P1;SDS_P2;PMS_P1;PMS_P2;Temp;Humidity;BMP_temperature;BMP_pressure;BME280_temperature;BME280_humidity;BME280_pressure;Samples;Min_cycle;Max_cycle;Signal;HPM_P1;HPM_P2
2022/08/14 00:00:14;;;;;;;8.93;5.30;;;22.60;90.80;;;;;;5047741;28;20144;-87
2022/08/14 00:02:40;;;;;;;9.25;5.00;;;22.60;90.70;;;;;;5046583;28;20099;-87
2022/08/14 00:05:12;;;;;;;5.88;5.38;;;22.60;92.30;;;;;;5045263;28;20028;-84
2022/08/14 00:07:38;;;;;;;6.10;5.50;;;22.50;91.80;;;;;;5028946;28;20043;-86
2022/08/14 00:10:06;;;;;;;8.25;5.38;;;22.40;91.30;;;;;;5046164;28;20036;-84
2022/08/14 00:12:34;;;;;;;7.22;5.40;;;22.40;91.30;;;;;;5037871;28;20032;-86
2022/08/14 00:15:03;;;;;;;7.88;6.00;;;22.40;91.50;;;;;;5046296;28;20029;-86
2022/08/14 00:17:29;;;;;;;6.25;5.57;;;22.40;91.70;;;;;;5040933;28;20029;-80
2022/08/14 00:19:55;;;;;;;7.55;6.05;;;22.40;91.80;;;;;;5050076;28;20079;-85
2022/08/14 00:22:21;;;;;;;6.55;6.05;;;22.30;91.50;;;;;;5042256;28;20477;-88
2022/08/14 00:24:47;;;;;;;7.82;5.53;;;22.20;92.50;;;;;;5042661;28;20030;-86
2022/08/14 00:27:12;;;;;;;5.82;5.28;;;22.10;92.70;;;;;;5038224;28;20091;-86
2022/08/14 00:29:38;;;;;;;7.90;5.55;;;22.10;91.40;;;;;;5049648;28;20388;-86
2022/08/14 00:32:04;;;;;;;6.13;5.35;;;22.10;92.50;;;;;;5036586;28;20029;-86
2022/08/14 00:34:30;;;;;;;7.35;6.57;;;22.00;93.10;;;;;;5044286;28;20021;-86
2022/08/14 00:36:58;;;;;;;7.45;6.55;;;22.00;92.20;;;;;;5038862;28;20037;-87
2022/08/14 00:39:24;;;;;;;7.47;6.65;;;22.00;92.00;;;;;;5045390;28;20123;-86
2022/08/14 00:41:50;;;;;;;6.70;6.10;;;22.00;92.50;;;;;;5048975;28;20037;-78
2022/08/14 00:44:16;;;;;;;6.88;6.38;;;21.80;93.30;;;;;;5043012;28;20017;-82
2022/08/14 00:46:43;;;;;;;7.30;6.70;;;21.80;93.30;;;;;;5048015;28;20100;-88
2022/08/14 00:49:10;;;;;;;7.97;7.10;;;21.80;92.80;;;;;;5042397;28;20092;-88
2022/08/14 00:51:37;;;;;;;7.80;6.28;;;21.80;92.90;;;;;;5045796;28;20029;-86
2022/08/14 00:54:03;;;;;;;6.38;5.80;;;21.60;94.10;;;;;;5043636;28;20021;-84
2022/08/14 00:56:29;;;;;;;7.28;6.57;;;21.50;94.20;;;;;;5044240;28;20536;-83
2022/08/14 00:58:55;;;;;;;7.38;6.55;;;21.40;94.60;;;;;;5044203;28;20047;-85
2022/08/14 01:01:21;;;;;;;7.97;6.45;;;21.30;95.30;;;;;;5046359;28;20028;-84
2022/08/14 01:03:47;;;;;;;8.30;6.50;;;21.30;95.90;;;;;;5047620;28;20064;-86
2022/08/14 01:06:15;;;;;;;7.60;6.80;;;21.30;94.80;;;;;;5044649;28;20028;-86
2022/08/14 01:08:43;;;;;;;9.43;7.40;;;21.30;95.00;;;;;;5041166;28;20057;-85
2022/08/14 01:11:14;;;;;;;7.97;7.18;;;21.30;94.10;;;;;;5041841;28;20021;-80
2022/08/14 01:13:44;;;;;;;9.40;8.05;;;21.30;94.10;;;;;;5048598;28;20497;-86
2022/08/14 01:16:13;;;;;;;10.25;7.43;;;21.30;93.40;;;;;;5049679;28;20028;-84
2022/08/14 01:21:35;;;;;;;8.10;6.50;;;21.30;93.60;;;;;;5042557;28;20545;-86
2022/08/14 01:24:01;;;;;;;7.25;6.65;;;21.30;94.60;;;;;;5021666;28;20033;-84
2022/08/14 01:26:28;;;;;;;10.93;6.40;;;21.30;94.10;;;;;;5038374;28;20033;-86
2022/08/14 01:28:57;;;;;;;8.07;6.53;;;21.20;93.10;;;;;;5023886;28;20030;-83
2022/08/14 01:31:27;;;;;;;7.25;6.63;;;21.10;92.50;;;;;;5026275;28;20037;-77
2022/08/14 01:33:56;;;;;;;9.90;8.20;;;21.00;92.90;;;;;;5038052;28;20037;-79
2022/08/14 01:36:23;;;;;;;9.40;7.88;;;21.00;92.70;;;;;;5037628;28;20037;-78
2022/08/14 01:38:50;;;;;;;9.90;7.70;;;20.90;93.00;;;;;;5038759;28;20021;-77
2022/08/14 01:41:20;;;;;;;8.13;7.32;;;20.80;92.90;;;;;;5050535;28;20040;-78
2022/08/14 01:44:00;;;;;;;8.60;7.63;;;20.80;93.20;;;;;;5058317;28;20035;-78
2022/08/14 01:46:28;;;;;;;10.38;6.63;;;20.80;93.00;;;;;;5045634;28;20476;-78
2022/08/14 01:48:56;;;;;;;9.48;6.63;;;20.70;93.20;;;;;;5045387;28;20037;-78
2022/08/14 01:51:23;;;;;;;8.82;6.85;;;20.70;93.50;;;;;;5048643;28;20013;-78
2022/08/14 01:53:54;;;;;;;7.90;7.00;;;20.70;93.20;;;;;;5051905;28;20453;-78
2022/08/14 01:56:34;;;;;;;9.00;7.25;;;20.60;94.00;;;;;;5054400;28;20025;-78
2022/08/14 01:59:00;;;;;;;9.38;7.85;;;20.60;93.40;;;;;;5049326;28;20017;-78
2022/08/14 02:01:26;;;;;;;8.93;7.60;;;20.60;93.30;;;;;;5042674;28;20032;-78
2022/08/14 02:03:52;;;;;;;8.50;7.90;;;20.50;93.50;;;;;;5048233;28;20036;-78
2022/08/14 02:06:18;;;;;;;8.13;7.53;;;20.60;94.00;;;;;;5049687;28;20072;-77
2022/08/14 02:08:44;;;;;;;9.50;8.70;;;20.60;93.80;;;;;;5050303;28;20049;-78
2022/08/14 02:11:23;;;;;;;8.98;8.18;;;20.50;93.30;;;;;;5046412;28;20509;-77
2022/08/14 02:14:03;;;;;;;10.90;8.73;;;20.50;93.40;;;;;;5048235;28;20021;-78
2022/08/14 02:16:35;;;;;;;9.95;8.95;;;20.50;93.50;;;;;;5050728;28;20504;-77
2022/08/14 02:19:05;;;;;;;8.10;7.30;;;20.40;94.10;;;;;;5043270;28;20021;-78
2022/08/14 02:21:31;;;;;;;7.05;6.47;;;20.40;93.80;;;;;;5046975;28;20280;-77
2022/08/14 02:24:00;;;;;;;8.73;7.80;;;20.50;95.60;;;;;;5044007;28;20172;-77
2022/08/14 02:26:32;;;;;;;6.97;6.43;;;20.40;96.10;;;;;;5045544;28;20029;-77
2022/08/14 02:29:00;;;;;;;;;;;20.40;95.70;;;;;;5044894;28;20017;-77
2022/08/14 02:31:31;;;;;;;8.63;7.82;;;20.30;95.60;;;;;;5042836;28;19958;-77
2022/08/14 02:34:17;;;;;;;9.38;8.30;;;20.30;95.20;;;;;;5051090;28;20436;-77
2022/08/14 02:36:44;;;;;;;9.48;8.60;;;20.10;94.80;;;;;;5045234;28;20086;-77
2022/08/14 02:39:11;;;;;;;9.82;8.82;;;20.00;95.30;;;;;;5032153;28;20032;-77
2022/08/14 02:41:37;;;;;;;10.00;9.10;;;19.90;95.30;;;;;;5042813;28;20026;-77
2022/08/14 02:44:04;;;;;;;9.70;8.77;;;19.90;95.50;;;;;;5042234;28;20040;-77
2022/08/14 02:46:31;;;;;;;9.20;8.38;;;19.90;95.20;;;;;;5043762;28;20074;-77
2022/08/14 02:48:57;;;;;;;11.23;8.93;;;19.90;95.30;;;;;;5047185;28;20032;-78
2022/08/14 02:51:23;;;;;;;11.60;9.73;;;19.80;96.00;;;;;;5041669;28;20013;-77
2022/08/14 02:53:49;;;;;;;11.40;8.73;;;19.80;95.40;;;;;;5043939;28;20033;-77
2022/08/14 02:56:18;;;;;;;9.57;8.10;;;19.80;96.10;;;;;;5046678;28;20020;-78
2022/08/14 02:58:46;;;;;;;8.65;7.95;;;19.80;97.30;;;;;;5043729;28;20039;-77
2022/08/14 03:01:16;;;;;;;8.88;8.07;;;19.70;96.80;;;;;;5044303;28;20029;-78
2022/08/14 03:03:43;;;;;;;10.32;9.25;;;19.70;96.90;;;;;;5044595;28;20036;-78
2022/08/14 03:06:10;;;;;;;10.60;8.85;;;19.70;96.10;;;;;;5049864;28;20045;-78
2022/08/14 03:08:37;;;;;;;11.20;8.45;;;19.60;96.00;;;;;;5052875;28;20025;-78
2022/08/14 03:11:06;;;;;;;13.43;7.75;;;19.60;96.20;;;;;;5033917;28;20136;-78
2022/08/14 03:13:41;;;;;;;9.10;8.10;;;19.70;95.90;;;;;;5050530;28;20061;-77
2022/08/14 03:16:12;;;;;;;9.00;7.78;;;19.60;95.90;;;;;;5041347;28;20478;-78
2022/08/14 03:18:41;;;;;;;10.32;8.52;;;19.60;95.90;;;;;;5042256;28;20029;-77
2022/08/14 03:21:08;;;;;;;10.98;7.88;;;19.60;95.70;;;;;;5047963;28;20477;-77
2022/08/14 03:23:35;;;;;;;10.55;8.70;;;19.60;96.30;;;;;;5048007;28;20031;-77
2022/08/14 03:26:02;;;;;;;18.52;7.70;;;19.60;96.10;;;;;;5051588;28;20029;-77
2022/08/14 03:28:29;;;;;;;9.48;8.25;;;19.60;96.60;;;;;;5050529;28;20025;-77
2022/08/14 03:30:56;;;;;;;9.00;7.72;;;19.40;97.80;;;;;;5042172;28;20026;-77
2022/08/14 03:33:22;;;;;;;10.00;8.35;;;19.40;96.60;;;;;;5047858;28;20385;-77
2022/08/14 03:35:49;;;;;;;10.07;7.95;;;19.40;96.20;;;;;;5052343;28;20029;-77
2022/08/14 03:38:17;;;;;;;8.57;7.70;;;19.30;96.70;;;;;;5041968;28;20489;-78
2022/08/14 03:40:45;;;;;;;8.95;8.05;;;19.30;96.90;;;;;;5048627;28;20071;-77
2022/08/14 03:43:12;;;;;;;8.75;7.85;;;19.30;96.50;;;;;;5046366;28;20029;-77
2022/08/14 03:45:39;;;;;;;12.57;7.95;;;19.30;97.90;;;;;;5047306;28;20066;-77
2022/08/14 03:48:20;;;;;;;8.32;7.50;;;19.30;99.60;;;;;;5046047;28;20045;-77
2022/08/14 03:50:47;;;;;;;9.50;8.52;;;19.30;98.50;;;;;;5041727;28;20033;-77
2022/08/14 03:53:14;;;;;;;7.90;7.18;;;19.30;97.20;;;;;;5046623;28;20124;-77
2022/08/14 03:55:41;;;;;;;7.65;7.00;;;19.30;96.70;;;;;;5043092;28;20021;-77
2022/08/14 03:58:08;;;;;;;12.52;8.27;;;19.30;97.40;;;;;;5046015;28;20065;-77
2022/08/14 04:00:35;;;;;;;9.38;7.13;;;19.20;96.90;;;;;;5040708;28;20025;-77
2022/08/14 04:03:04;;;;;;;7.72;6.65;;;19.30;97.00;;;;;;5047394;28;20039;-77
2022/08/14 04:05:30;;;;;;;11.73;6.97;;;19.20;98.90;;;;;;5045847;28;20026;-77
2022/08/14 04:07:57;;;;;;;9.02;7.10;;;19.20;97.80;;;;;;5045590;28;20063;-77
2022/08/14 04:10:23;;;;;;;8.63;7.90;;;19.20;97.30;;;;;;5045904;28;20067;-77
2022/08/14 04:12:49;;;;;;;8.77;7.40;;;19.20;99.60;;;;;;5046663;28;20033;-77
2022/08/14 04:15:18;;;;;;;10.82;7.50;;;19.10;99.60;;;;;;5045101;28;20032;-77
2022/08/14 04:17:45;;;;;;;8.23;7.43;;;19.00;99.90;;;;;;5044542;28;20065;-77
2022/08/14 04:20:11;;;;;;;8.32;7.50;;;19.00;99.90;;;;;;5044772;28;20072;-77
2022/08/14 04:22:41;;;;;;;7.70;7.10;;;19.10;98.70;;;;;;5049709;28;20040;-76
2022/08/14 04:25:07;;;;;;;7.93;6.45;;;19.10;98.40;;;;;;5048027;28;20032;-77
2022/08/14 04:27:34;;;;;;;6.63;6.13;;;19.20;98.00;;;;;;5048795;28;20063;-77
2022/08/14 04:30:00;;;;;;;8.02;7.13;;;19.20;99.70;;;;;;5048566;28;20099;-77
2022/08/14 04:32:26;;;;;;;9.85;7.00;;;19.20;97.60;;;;;;5046773;28;20492;-77
2022/08/14 04:34:53;;;;;;;10.52;6.53;;;19.20;98.10;;;;;;5038596;28;20028;-77
2022/08/14 04:45:39;;;;;;;6.97;6.38;;;19.10;99.00;;;;;;5044476;28;20043;-77
2022/08/14 04:48:13;;;;;;;7.35;6.68;;;19.10;99.90;;;;;;5028127;28;20029;-77
2022/08/14 04:50:44;;;;;;;9.57;7.18;;;19.10;98.40;;;;;;5044197;28;20827;-77
2022/08/14 04:53:21;;;;;;;7.57;6.88;;;19.10;98.90;;;;;;5039158;28;20025;-77
2022/08/14 04:55:49;;;;;;;6.85;6.25;;;19.00;98.80;;;;;;5046050;28;20035;-77
2022/08/14 04:58:16;;;;;;;7.10;6.18;;;19.10;99.10;;;;;;5027901;28;20459;-77
2022/08/14 05:00:49;;;;;;;7.30;6.60;;;19.10;97.90;;;;;;5043470;28;20025;-77
2022/08/14 05:03:22;;;;;;;9.20;7.05;;;19.10;98.70;;;;;;5037831;28;20013;-77
2022/08/14 05:05:57;;;;;;;6.30;5.80;;;19.10;97.90;;;;;;5032411;28;20083;-77
2022/08/14 05:08:24;;;;;;;6.05;5.60;;;19.10;99.10;;;;;;5041262;28;20501;-77
2022/08/14 05:10:55;;;;;;;9.50;6.53;;;19.20;98.10;;;;;;5027390;28;20128;-77
2022/08/14 05:13:25;;;;;;;6.35;5.90;;;19.20;98.30;;;;;;5025811;28;20024;-77
2022/08/14 05:15:52;;;;;;;8.18;7.43;;;19.10;98.60;;;;;;5050803;28;20036;-77
2022/08/14 05:18:21;;;;;;;6.40;5.90;;;19.20;98.40;;;;;;5041615;28;20043;-77
2022/08/14 05:20:53;;;;;;;6.68;5.97;;;19.20;98.20;;;;;;5040249;28;20025;-77
2022/08/14 05:23:24;;;;;;;7.47;6.63;;;19.20;98.20;;;;;;5045112;28;20053;-77
2022/08/14 05:25:57;;;;;;;7.22;6.68;;;19.10;98.20;;;;;;5040983;28;20291;-77
2022/08/14 05:28:24;;;;;;;7.03;6.43;;;19.10;98.60;;;;;;5041399;28;20501;-77
2022/08/14 05:31:01;;;;;;;8.63;6.57;;;19.10;99.50;;;;;;5042702;28;20131;-77
2022/08/14 05:33:29;;;;;;;6.82;6.22;;;19.10;98.80;;;;;;5041750;28;20485;-77
2022/08/14 05:36:02;;;;;;;7.95;7.00;;;19.10;99.20;;;;;;5044419;28;20026;-76
2022/08/14 05:38:32;;;;;;;7.75;6.50;;;19.20;99.90;;;;;;5043769;28;20021;-77
2022/08/14 05:41:03;;;;;;;8.50;6.70;;;19.20;99.10;;;;;;5031268;28;20052;-77
2022/08/14 05:43:32;;;;;;;8.05;6.57;;;19.20;99.30;;;;;;5048311;28;20385;-77
2022/08/14 05:45:59;;;;;;;7.07;6.05;;;19.20;99.90;;;;;;5043466;28;20040;-77
2022/08/14 05:48:25;;;;;;;6.20;5.60;;;19.20;99.90;;;;;;5040423;28;20030;-77
2022/08/14 05:50:53;;;;;;;7.05;5.80;;;19.20;99.60;;;;;;5047721;28;20025;-78
2022/08/14 05:53:20;;;;;;;8.27;6.75;;;19.20;99.60;;;;;;5038483;28;20029;-77
2022/08/14 05:55:47;;;;;;;7.43;5.93;;;19.20;99.80;;;;;;5038118;28;20116;-77
2022/08/14 05:58:13;;;;;;;8.38;6.43;;;19.20;99.90;;;;;;5040247;28;20025;-77
2022/08/14 06:00:41;;;;;;;8.30;6.47;;;19.20;99.90;;;;;;5047474;28;20025;-77
2022/08/14 06:03:10;;;;;;;8.77;6.18;;;19.20;99.90;;;;;;5048430;28;20024;-77
2022/08/14 06:05:36;;;;;;;9.35;6.30;;;19.30;99.90;;;;;;5038063;28;20183;-78
2022/08/14 06:08:02;;;;;;;7.03;6.32;;;19.30;99.90;;;;;;5025867;28;20124;-77
2022/08/14 06:10:29;;;;;;;7.20;6.50;;;19.30;99.90;;;;;;5043074;28;20499;-77
2022/08/14 06:13:02;;;;;;;6.88;6.25;;;19.40;99.90;;;;;;5032997;28;20030;-77
2022/08/14 06:15:28;;;;;;;7.30;6.22;;;19.40;99.90;;;;;;5043825;28;20419;-77
2022/08/14 06:17:55;;;;;;;7.07;6.47;;;19.50;99.90;;;;;;5040521;28;20029;-77
2022/08/14 06:20:21;;;;;;;7.35;6.47;;;19.50;99.90;;;;;;5041767;28;20100;-78
2022/08/14 06:22:48;;;;;;;7.88;7.07;;;19.50;99.90;;;;;;5037715;28;20179;-77
2022/08/14 06:25:14;;;;;;;6.80;6.03;;;19.60;99.90;;;;;;5048178;28;20028;-77
2022/08/14 06:27:43;;;;;;;8.75;6.28;;;19.60;99.90;;;;;;5039878;28;20039;-77
2022/08/14 06:30:12;;;;;;;7.80;7.10;;;19.70;99.90;;;;;;5039492;28;20100;-77
2022/08/14 06:32:38;;;;;;;6.80;6.00;;;19.70;99.90;;;;;;5037147;28;20029;-77
2022/08/14 06:35:06;;;;;;;9.98;6.35;;;19.80;99.90;;;;;;5049788;28;20031;-77
2022/08/14 06:37:47;;;;;;;8.77;6.70;;;19.80;99.90;;;;;;5043993;28;20025;-72
2022/08/14 06:40:15;;;;;;;8.40;5.88;;;19.90;99.90;;;;;;5037929;28;20545;-78
2022/08/14 06:42:41;;;;;;;6.72;6.15;;;20.00;99.90;;;;;;5044479;28;20029;-78
2022/08/14 06:45:07;;;;;;;7.10;5.97;;;20.10;99.90;;;;;;5047387;28;20074;-73
2022/08/14 06:47:38;;;;;;;8.65;5.43;;;20.10;99.90;;;;;;5049613;28;20040;-72
2022/08/14 06:50:05;;;;;;;6.82;6.22;;;20.10;99.90;;;;;;5050975;28;20024;-77
2022/08/14 06:52:31;;;;;;;11.77;6.47;;;20.30;99.90;;;;;;5046607;28;20493;-78
2022/08/14 06:54:57;;;;;;;9.63;5.80;;;20.40;99.90;;;;;;5047961;28;20052;-78
2022/08/14 06:57:24;;;;;;;8.52;6.45;;;20.40;99.90;;;;;;5049171;28;20108;-77
2022/08/14 06:59:50;;;;;;;7.13;5.80;;;20.50;99.90;;;;;;5054106;28;20382;-78
2022/08/14 07:07:44;;;;;;;9.65;6.53;;;20.80;99.90;;;;;;5047779;28;20130;-78
2022/08/14 07:10:11;;;;;;;6.35;5.75;;;20.90;99.90;;;;;;5046988;28;20031;-78
2022/08/14 07:12:37;;;;;;;6.28;5.70;;;21.00;99.90;;;;;;5042164;28;20493;-78
2022/08/14 07:15:04;;;;;;;6.97;6.30;;;21.10;99.90;;;;;;5043223;28;20032;-79
2022/08/14 07:17:30;;;;;;;8.55;6.57;;;21.30;99.90;;;;;;5048091;28;20100;-78
2022/08/14 07:19:56;;;;;;;7.55;5.60;;;21.40;99.90;;;;;;5042103;28;20109;-74
2022/08/14 07:22:21;;;;;;;7.72;6.00;;;21.40;99.90;;;;;;5048550;28;20377;-78
2022/08/14 07:24:47;;;;;;;6.47;5.80;;;21.50;99.90;;;;;;5047279;28;20493;-78
2022/08/14 07:27:13;;;;;;;7.85;5.78;;;21.60;99.90;;;;;;5047300;28;20435;-78
2022/08/14 07:29:39;;;;;;;9.07;5.57;;;21.80;99.90;;;;;;5043778;28;20538;-78
2022/08/14 07:32:05;;;;;;;6.40;5.80;;;21.90;99.90;;;;;;5046603;28;20027;-78
2022/08/14 07:34:30;;;;;;;9.18;5.78;;;22.00;99.90;;;;;;5048530;28;20019;-78
2022/08/14 07:36:56;;;;;;;6.55;5.80;;;22.10;99.90;;;;;;5043461;28;20029;-77
2022/08/14 07:39:22;;;;;;;7.22;5.57;;;22.30;99.90;;;;;;5042720;28;20022;-79
2022/08/14 07:41:48;;;;;;;8.63;6.20;;;22.40;99.90;;;;;;5043912;28;20029;-78
2022/08/14 07:44:14;;;;;;;6.85;6.15;;;22.50;99.90;;;;;;5044635;28;20183;-79
2022/08/14 07:46:39;;;;;;;7.13;4.97;;;22.60;99.90;;;;;;5046134;28;20140;-79
2022/08/14 07:49:06;;;;;;;6.70;6.10;;;22.80;99.90;;;;;;5042932;28;20029;-79
2022/08/14 07:51:32;;;;;;;8.23;5.70;;;22.90;99.30;;;;;;5062523;28;20096;-78
2022/08/14 07:53:58;;;;;;;10.50;6.95;;;23.00;99.20;;;;;;5055558;28;20120;-78
2022/08/14 07:56:24;;;;;;;8.63;5.88;;;23.20;99.60;;;;;;5050837;28;20413;-78
2022/08/14 07:58:50;;;;;;;7.72;5.45;;;23.30;98.90;;;;;;5035839;28;20025;-78
2022/08/14 08:01:17;;;;;;;6.68;6.03;;;23.50;99.90;;;;;;5019661;28;20024;-80
2022/08/14 08:03:48;;;;;;;5.88;5.35;;;23.60;98.70;;;;;;5049818;28;20029;-78
2022/08/14 08:06:17;;;;;;;6.43;5.82;;;23.70;98.00;;;;;;5047941;28;20060;-79
2022/08/14 08:08:45;;;;;;;6.28;5.63;;;23.90;99.00;;;;;;5047678;28;20040;-79
2022/08/14 08:11:12;;;;;;;6.60;6.00;;;24.10;97.50;;;;;;5042312;28;20108;-79
2022/08/14 08:13:43;;;;;;;9.15;6.38;;;24.20;96.60;;;;;;5042002;28;20029;-79
2022/08/14 08:16:09;;;;;;;7.20;4.93;;;24.40;96.40;;;;;;5043084;28;20469;-78
2022/08/14 08:18:35;;;;;;;9.27;4.90;;;24.50;98.40;;;;;;5049754;28;20461;-79
2022/08/14 08:21:00;;;;;;;6.70;6.18;;;24.50;99.90;;;;;;5043425;28;20044;-79
2022/08/14 08:23:28;;;;;;;7.55;5.80;;;24.60;97.90;;;;;;5050287;28;20427;-78
2022/08/14 08:25:57;;;;;;;5.28;4.75;;;24.80;97.00;;;;;;5047205;28;20037;-78
2022/08/14 08:28:26;;;;;;;6.75;5.75;;;24.80;98.30;;;;;;5040506;28;20393;-79
2022/08/14 08:31:05;;;;;;;6.50;5.50;;;25.00;96.50;;;;;;5042146;28;20029;-79
2022/08/14 08:33:34;;;;;;;8.07;5.97;;;25.10;95.00;;;;;;5046233;28;20040;-78
2022/08/14 08:36:05;;;;;;;10.55;5.43;;;25.30;94.20;;;;;;5040365;28;20025;-78
2022/08/14 08:38:33;;;;;;;7.32;5.07;;;25.40;95.30;;;;;;5041781;28;20029;-78
2022/08/14 08:40:59;;;;;;;8.82;5.80;;;25.60;93.40;;;;;;5047121;28;20477;-79
2022/08/14 08:43:32;;;;;;;6.32;5.47;;;25.60;94.20;;;;;;5049914;28;20053;-79
2022/08/14 08:46:02;;;;;;;;;;;25.80;94.10;;;;;;5046529;28;20017;-79
2022/08/14 08:48:29;;;;;;;5.65;5.20;;;26.00;93.30;;;;;;5028439;28;19913;-79
2022/08/14 08:51:01;;;;;;;8.27;5.32;;;26.10;95.80;;;;;;5013743;28;20041;-79
2022/08/14 08:53:32;;;;;;;7.80;5.87;;;26.20;96.10;;;;;;5052660;28;20029;-79
2022/08/14 08:55:59;;;;;;;6.07;5.47;;;26.40;98.10;;;;;;5041531;28;20065;-79
2022/08/14 08:58:25;;;;;;;6.05;5.40;;;26.60;94.50;;;;;;5048737;28;20029;-80
2022/08/14 09:00:56;;;;;;;5.53;5.03;;;26.70;93.40;;;;;;5030028;28;20102;-79
2022/08/14 09:03:24;;;;;;;6.93;5.35;;;26.90;95.00;;;;;;5028818;28;20022;-80
2022/08/14 09:05:53;;;;;;;5.70;5.18;;;27.10;93.70;;;;;;5042277;28;20028;-80
2022/08/14 09:08:27;;;;;;;6.20;5.63;;;27.30;91.80;;;;;;5028570;28;20029;-80
2022/08/14 09:10:55;;;;;;;6.85;5.30;;;27.40;91.70;;;;;;5033397;28;20032;-80
2022/08/14 09:13:24;;;;;;;8.88;5.25;;;27.40;94.30;;;;;;5060765;28;20025;-80
2022/08/14 09:15:52;;;;;;;6.22;5.45;;;27.50;93.40;;;;;;5057743;28;20017;-80
2022/08/14 09:18:21;;;;;;;8.30;5.57;;;27.80;90.70;;;;;;5047008;28;20017;-80
2022/08/14 09:20:50;;;;;;;7.03;5.28;;;27.90;90.40;;;;;;5047653;28;20025;-79
2022/08/14 09:23:17;;;;;;;7.38;4.93;;;28.20;88.70;;;;;;5058175;28;20020;-80
2022/08/14 09:25:48;;;;;;;7.25;4.93;;;28.20;90.00;;;;;;5049996;28;20500;-80
2022/08/14 09:28:16;;;;;;;5.80;5.00;;;28.30;90.80;;;;;;5037499;28;20029;-80
2022/08/14 09:30:53;;;;;;;6.68;6.18;;;28.40;91.40;;;;;;5047189;28;20420;-79
2022/08/14 09:33:37;;;;;;;5.97;5.22;;;28.60;89.20;;;;;;5041776;28;20104;-79
2022/08/14 09:36:15;;;;;;;8.75;5.20;;;28.80;87.20;;;;;;5026358;28;20563;-79
2022/08/14 09:38:53;;;;;;;5.93;4.80;;;29.00;87.20;;;;;;5032207;28;20112;-80
2022/08/14 09:41:54;;;;;;;5.82;5.13;;;29.10;88.90;;;;;;5040780;28;20087;-79
2022/08/14 09:44:57;;;;;;;4.97;4.57;;;29.30;87.80;;;;;;5013445;28;20037;-80
2022/08/14 09:47:41;;;;;;;;;;;29.50;90.70;;;;;;5042510;28;20041;-80
2022/08/14 09:50:20;;;;;;;6.57;5.28;;;29.70;85.70;;;;;;5042689;28;19995;-80
2022/08/14 09:52:55;;;;;;;6.68;5.97;;;29.90;88.30;;;;;;5046181;28;20033;-79
2022/08/14 09:55:23;;;;;;;6.57;5.13;;;30.00;84.00;;;;;;5041240;28;20025;-79
2022/08/14 09:57:51;;;;;;;6.93;5.30;;;30.00;85.30;;;;;;5043137;28;20029;-80
2022/08/14 10:00:21;;;;;;;6.85;6.10;;;30.20;84.00;;;;;;5049161;28;20052;-80
2022/08/14 10:02:59;;;;;;;8.57;6.25;;;30.30;85.80;;;;;;5042620;28;20025;-81
2022/08/14 10:05:34;;;;;;;7.97;6.15;;;30.50;82.60;;;;;;5030136;28;20020;-78
2022/08/14 10:08:01;;;;;;;7.45;5.68;;;30.60;86.20;;;;;;5046516;28;20048;-81
2022/08/14 10:10:31;;;;;;;8.68;5.47;;;30.70;85.20;;;;;;5037214;28;20021;-78
2022/08/14 10:12:58;;;;;;;5.75;5.25;;;30.70;82.80;;;;;;5048993;28;20497;-81
2022/08/14 10:15:28;;;;;;;5.60;5.13;;;30.90;86.10;;;;;;5042698;28;20469;-78
2022/08/14 10:18:10;;;;;;;8.02;5.63;;;30.80;77.60;;;;;;5054201;28;20040;-78
2022/08/14 10:20:51;;;;;;;9.10;5.88;;;30.90;82.00;;;;;;5043424;28;20452;-79
2022/08/14 10:23:20;;;;;;;6.35;5.70;;;31.00;82.30;;;;;;5049144;28;20021;-78
2022/08/14 10:25:49;;;;;;;6.35;5.15;;;31.20;83.60;;;;;;5046542;28;20063;-81
2022/08/14 10:28:19;;;;;;;5.45;4.97;;;31.40;80.80;;;;;;5044596;28;20037;-79
2022/08/14 10:30:51;;;;;;;9.10;5.38;;;31.40;77.40;;;;;;5050831;28;20033;-78
2022/08/14 10:33:29;;;;;;;6.18;5.57;;;31.60;77.20;;;;;;5049731;28;20025;-78
2022/08/14 10:35:56;;;;;;;5.50;5.00;;;31.60;78.30;;;;;;5046079;28;20040;-80
2022/08/14 10:38:26;;;;;;;5.05;4.63;;;31.70;77.30;;;;;;5049930;28;20045;-79
2022/08/14 10:40:52;;;;;;;6.65;5.30;;;31.70;74.10;;;;;;5042384;28;20044;-80
2022/08/14 10:43:25;;;;;;;5.03;4.60;;;31.60;74.40;;;;;;5049238;28;20021;-82
2022/08/14 10:46:00;;;;;;;5.13;4.80;;;31.60;76.80;;;;;;5042644;28;20029;-81
2022/08/14 10:48:26;;;;;;;6.28;4.97;;;31.70;72.50;;;;;;5051412;28;20095;-82
2022/08/14 10:50:53;;;;;;;7.18;4.80;;;31.50;76.70;;;;;;5051839;28;20025;-80
2022/08/14 10:53:34;;;;;;;6.20;5.13;;;31.30;78.90;;;;;;5046020;28;20021;-79
2022/08/14 10:56:04;;;;;;;4.70;4.35;;;31.20;78.10;;;;;;5039977;28;20156;-82
2022/08/14 10:58:33;;;;;;;5.68;4.57;;;31.30;78.70;;;;;;5048146;28;20025;-82
2022/08/14 11:01:06;;;;;;;4.53;4.20;;;31.40;77.60;;;;;;5028367;28;20499;-84
2022/08/14 11:03:42;;;;;;;5.30;4.80;;;31.40;79.40;;;;;;5035826;28;20116;-82
2022/08/14 11:06:15;;;;;;;5.30;4.78;;;31.30;78.60;;;;;;5045051;28;20097;-83
2022/08/14 11:08:40;;;;;;;7.70;4.70;;;31.30;78.20;;;;;;5052510;28;20036;-79
2022/08/14 11:11:06;;;;;;;4.85;4.45;;;31.40;75.10;;;;;;5050774;28;20029;-78
2022/08/14 11:13:32;;;;;;;4.82;4.43;;;31.50;76.80;;;;;;5050595;28;20023;-78
2022/08/14 11:16:00;;;;;;;4.60;4.30;;;31.80;78.30;;;;;;5055456;28;20107;-78
2022/08/14 11:18:29;;;;;;;5.38;4.95;;;31.90;73.00;;;;;;5049830;28;20051;-78
2022/08/14 11:20:59;;;;;;;4.18;3.88;;;32.10;77.90;;;;;;5050994;28;20111;-79
2022/08/14 11:23:28;;;;;;;4.80;4.35;;;32.30;71.80;;;;;;5051439;28;20021;-76
2022/08/14 11:25:56;;;;;;;6.70;4.60;;;32.30;70.60;;;;;;5048261;28;20033;-84
2022/08/14 11:28:25;;;;;;;5.40;4.47;;;32.40;71.10;;;;;;5048770;28;20116;-76
2022/08/14 11:30:52;;;;;;;4.78;3.75;;;32.60;74.20;;;;;;5044971;28;20028;-78
2022/08/14 11:33:33;;;;;;;3.92;3.55;;;32.80;71.40;;;;;;5050144;28;20439;-76
2022/08/14 11:36:01;;;;;;;4.72;3.75;;;32.80;66.50;;;;;;5052857;28;20384;-77
2022/08/14 11:38:34;;;;;;;4.63;4.22;;;32.80;68.30;;;;;;5024651;28;20102;-76
2022/08/14 11:41:00;;;;;;;4.65;4.25;;;32.90;67.80;;;;;;5053487;28;20503;-77
2022/08/14 11:43:27;;;;;;;4.70;4.40;;;32.90;71.30;;;;;;5051309;28;20037;-76
2022/08/14 11:45:53;;;;;;;6.47;4.05;;;33.00;72.20;;;;;;5047890;28;20508;-76
2022/08/14 11:48:23;;;;;;;4.50;4.07;;;32.90;64.00;;;;;;5045893;28;20105;-80
2022/08/14 11:50:53;;;;;;;5.80;4.38;;;32.80;67.60;;;;;;5032460;28;20037;-78
2022/08/14 11:53:24;;;;;;;6.35;4.20;;;32.90;70.00;;;;;;5047150;28;20024;-78
2022/08/14 11:56:10;;;;;;;4.97;4.32;;;32.90;66.00;;;;;;5047819;28;20075;-76
2022/08/14 11:58:36;;;;;;;4.25;3.80;;;32.90;71.00;;;;;;5051997;28;20458;-78
2022/08/14 12:01:07;;;;;;;9.63;4.10;;;33.00;70.20;;;;;;5051351;28;20029;-76
2022/08/14 12:03:48;;;;;;;4.40;3.90;;;33.00;67.20;;;;;;5046144;28;20025;-76
2022/08/14 12:06:18;;;;;;;4.78;3.55;;;32.90;68.70;;;;;;5047761;28;20508;-77
2022/08/14 12:08:45;;;;;;;7.63;3.67;;;32.80;67.20;;;;;;5047376;28;20036;-75
2022/08/14 12:11:13;;;;;;;4.10;3.63;;;32.90;67.20;;;;;;5050377;28;20016;-75
2022/08/14 12:13:42;;;;;;;4.25;3.58;;;33.00;68.10;;;;;;5050591;28;20392;-75
2022/08/14 12:16:15;;;;;;;4.00;3.55;;;33.10;70.00;;;;;;5045999;28;20021;-83
2022/08/14 12:18:43;;;;;;;4.70;3.83;;;32.80;62.20;;;;;;5049359;28;20496;-77
2022/08/14 12:21:13;;;;;;;3.38;3.17;;;32.90;64.10;;;;;;5051255;28;20032;-75
2022/08/14 12:23:39;;;;;;;4.30;4.00;;;33.20;65.10;;;;;;5053662;28;20037;-75
2022/08/14 12:26:24;;;;;;;4.45;4.10;;;33.20;67.40;;;;;;5047243;28;20485;-73
2022/08/14 12:28:50;;;;;;;4.40;4.10;;;33.10;66.30;;;;;;5043374;28;20048;-78
2022/08/14 12:31:20;;;;;;;4.57;4.18;;;33.00;65.90;;;;;;5047977;28;20136;-76
2022/08/14 12:34:00;;;;;;;5.68;4.03;;;33.00;63.90;;;;;;5046085;28;20052;-74
2022/08/14 12:36:29;;;;;;;4.63;3.67;;;32.90;64.40;;;;;;5044510;28;20033;-74
2022/08/14 12:39:17;;;;;;;4.13;3.72;;;33.10;62.90;;;;;;5045504;28;20032;-74
2022/08/14 12:41:51;;;;;;;3.90;3.70;;;33.00;64.10;;;;;;5045704;28;20054;-73
2022/08/14 12:44:31;;;;;;;4.22;3.88;;;33.00;64.60;;;;;;5047432;28;20036;-73
2022/08/14 12:47:06;;;;;;;5.00;4.47;;;32.70;61.40;;;;;;5049243;28;20024;-73
2022/08/14 12:49:33;;;;;;;4.57;3.75;;;32.60;65.20;;;;;;5047277;28;20380;-72
2022/08/14 12:52:01;;;;;;;4.20;3.90;;;32.50;68.50;;;;;;5041620;28;20534;-73
2022/08/14 12:54:28;;;;;;;4.18;3.90;;;32.60;69.60;;;;;;5050517;28;20025;-75
2022/08/14 12:57:10;;;;;;;4.35;3.55;;;32.50;67.40;;;;;;5048197;28;20032;-73
2022/08/14 12:59:36;;;;;;;4.75;4.45;;;32.30;72.20;;;;;;5044030;28;20020;-73
2022/08/14 13:02:02;;;;;;;4.80;4.40;;;32.40;66.80;;;;;;5046484;28;20726;-73
2022/08/14 13:04:30;;;;;;;4.25;3.85;;;32.40;66.10;;;;;;5047226;28;20024;-73
2022/08/14 13:07:07;;;;;;;4.22;4.03;;;32.60;71.00;;;;;;5046829;28;20505;-73
2022/08/14 13:09:34;;;;;;;3.97;3.67;;;32.60;66.70;;;;;;5030632;28;20017;-73
2022/08/14 13:12:04;;;;;;;4.72;4.20;;;32.60;71.70;;;;;;5049605;28;20025;-72
2022/08/14 13:14:34;;;;;;;4.97;4.63;;;32.80;72.90;;;;;;5044611;28;20029;-77